createdAt,value
2018-09-14T00:02:09.011Z,18.02
2018-09-14T00:08:09.941Z,20.24
2018-09-14T00:12:10.604Z,18.77
2018-09-14T00:18:11.372Z,21.85
2018-09-14T00:22:12.158Z,19.61
2018-09-14T00:24:13.047Z,20.86
2018-09-14T00:28:13.873Z,20.82
2018-09-14T00:34:14.829Z,20.29
2018-09-14T00:38:15.585Z,20.25
2018-09-14T00:44:16.451Z,21.09
2018-09-14T00:48:17.275Z,19.67
2018-09-14T00:50:18.041Z,19.88
2018-09-14T00:54:18.827Z,20.63
2018-09-14T01:00:19.915Z,21.81
2018-09-14T01:04:20.737Z,20.04
2018-09-14T01:10:21.573Z,22.75
2018-09-14T01:14:22.344Z,21.4
2018-09-14T01:16:23.103Z,24.55
2018-09-14T01:20:23.884Z,22.09
2018-09-14T01:26:24.751Z,23.7
2018-09-14T01:30:25.506Z,23.49
2018-09-14T01:36:26.327Z,25.84
2018-09-14T01:40:27.142Z,25.8
2018-09-14T01:42:27.955Z,23.49
2018-09-14T01:46:28.772Z,25.45
2018-09-14T01:52:29.507Z,25.56
2018-09-14T01:56:30.354Z,24.83
2018-09-14T02:02:31.382Z,24.56
2018-09-14T02:06:32.223Z,23.08
2018-09-14T02:08:32.893Z,24.38
2018-09-14T02:12:33.758Z,23.28
2018-09-14T02:18:34.455Z,24.98
2018-09-14T02:22:35.231Z,25.16
2018-09-14T02:28:35.968Z,26.35
2018-09-14T02:32:36.755Z,25.72
2018-09-14T02:34:37.330Z,25.23
2018-09-14T02:38:38.075Z,25.63
2018-09-14T02:44:38.824Z,25
2018-09-14T02:48:39.680Z,25.52
2018-09-14T02:54:40.351Z,27.57
2018-09-14T03:00:41.185Z,28.87
2018-09-14T03:04:41.881Z,26.73
2018-09-14T03:10:42.617Z,29.4
2018-09-14T03:14:43.633Z,28.66
2018-09-14T03:20:44.334Z,29.13
2018-09-14T03:26:45.127Z,26.81
2018-09-14T03:30:45.977Z,27.01
2018-09-14T03:36:46.768Z,28.5
2018-09-14T03:40:47.634Z,28.8
2018-09-14T03:46:48.383Z,28.08
2018-09-14T03:52:49.188Z,30.59
2018-09-14T03:56:50.153Z,28.24
2018-09-14T04:02:50.895Z,28.4
2018-09-14T04:06:51.903Z,28.18
2018-09-14T04:12:52.609Z,28.11
2018-09-14T04:18:53.313Z,27
2018-09-14T04:22:54.049Z,26.08
2018-09-14T04:28:54.871Z,27.76
2018-09-14T04:32:55.686Z,26.98
2018-09-14T04:38:56.452Z,26.99
2018-09-14T04:44:57.189Z,28.8
2018-09-14T04:48:57.933Z,27.37
2018-09-14T04:54:58.762Z,29.19
2018-09-14T04:58:59.553Z,26.8
2018-09-14T05:05:00.385Z,28.37
2018-09-14T05:11:01.183Z,28.22
2018-09-14T05:15:02.252Z,28.44
2018-09-14T05:21:02.647Z,27.56
2018-09-14T05:25:03.416Z,28.27
2018-09-14T05:27:04.049Z,30.16
2018-09-14T05:31:05.004Z,29.23
2018-09-14T05:37:05.795Z,30.95
2018-09-14T05:41:06.487Z,30.71
2018-09-14T05:47:07.384Z,29.97
2018-09-14T05:51:08.176Z,30.85
2018-09-14T05:53:08.869Z,29.11
2018-09-14T05:57:09.640Z,30.32
2018-09-14T06:03:10.302Z,30.05
2018-09-14T06:07:10.986Z,28.7
2018-09-14T06:13:11.779Z,27.66
2018-09-14T06:17:12.715Z,26.6
2018-09-14T06:19:13.277Z,27.61
2018-09-14T06:23:14.031Z,26.45
2018-09-14T06:29:14.831Z,29.3
2018-09-14T06:33:15.625Z,28.09
2018-09-14T06:39:16.547Z,27.3
2018-09-14T06:43:17.416Z,27.76
2018-09-14T06:45:18.470Z,29.04
2018-09-14T06:49:19.219Z,27.99
2018-09-14T06:55:20.232Z,31.64
2018-09-14T06:59:21.159Z,29.54
2018-09-14T07:05:21.955Z,29.89
2018-09-14T07:09:22.913Z,28.61
2018-09-14T07:11:23.890Z,38.04
2018-09-14T07:15:24.821Z,34.42
2018-09-14T07:21:25.661Z,35.13
2018-09-14T07:25:26.435Z,32.47
2018-09-14T07:31:27.288Z,34.81
2018-09-14T07:35:29.461Z,34.53
2018-09-14T07:37:30.159Z,34.47
2018-09-14T07:41:30.954Z,33.7
2018-09-14T07:47:31.685Z,37.73
2018-09-14T07:51:32.550Z,36.77
2018-09-14T07:57:33.244Z,38.2
2018-09-14T08:01:34.002Z,36.17
2018-09-14T08:03:34.704Z,35.44
2018-09-14T08:07:35.489Z,35.75
2018-09-14T08:13:36.253Z,35.46
2018-09-14T08:17:37.042Z,36.58
2018-09-14T08:23:37.844Z,31.49
2018-09-14T08:27:38.618Z,30.91
2018-09-14T08:29:48.011Z,33.93
2018-09-14T08:33:48.930Z,33.91
2018-09-14T08:39:49.636Z,31.33
2018-09-14T08:43:50.380Z,31.49
2018-09-14T08:49:51.221Z,32.19
2018-09-14T08:53:51.957Z,30.85
2018-09-14T08:55:53.023Z,31.45
2018-09-14T08:59:53.698Z,30.83
2018-09-14T09:05:54.420Z,31.06
2018-09-14T09:09:55.249Z,29.37
2018-09-14T09:15:55.974Z,33.55
2018-09-14T09:19:56.766Z,32.96
2018-09-14T09:21:57.510Z,32.54
2018-09-14T09:25:58.315Z,30.82
2018-09-14T09:31:59.032Z,30.28
2018-09-14T09:35:59.767Z,27.9
2018-09-14T09:42:00.542Z,24.29
2018-09-14T09:46:01.416Z,22.8
2018-09-14T09:48:02.201Z,23.45
2018-09-14T09:52:02.957Z,23.45
2018-09-14T09:58:03.707Z,21.18
2018-09-14T10:02:04.509Z,21.85
2018-09-14T10:08:05.095Z,21.25
2018-09-14T10:12:06.022Z,21.24
2018-09-14T10:14:06.843Z,19.91
2018-09-14T10:24:09.967Z,20.04
2018-09-14T10:24:10.136Z,19.84
2018-09-14T10:28:10.911Z,18.39
2018-09-14T10:34:11.744Z,18.19
2018-09-14T10:38:17.972Z,16.79
2018-09-14T10:40:24.432Z,14.65
2018-09-14T10:44:25.550Z,14.53
2018-09-14T10:50:28.796Z,15.73
2018-09-14T10:54:31.365Z,14.95
2018-09-14T11:00:32.773Z,15.5
2018-09-14T11:04:33.792Z,14.1
2018-09-14T11:10:34.537Z,13.51
2018-09-14T11:16:35.416Z,14.25
2018-09-14T11:20:36.188Z,14.49
2018-09-14T11:26:36.819Z,13.81
2018-09-14T11:30:37.549Z,13.77
2018-09-14T11:36:38.689Z,14.25
2018-09-14T11:42:39.450Z,15.88
2018-09-14T11:46:40.151Z,15.47
2018-09-14T11:52:40.916Z,14.81
2018-09-14T11:56:41.669Z,14.83
2018-09-14T12:02:43.106Z,14.56
2018-09-14T12:08:43.918Z,14.32
2018-09-14T12:12:44.703Z,14.05
2018-09-14T12:18:45.577Z,12.38
2018-09-14T12:22:46.424Z,12.39
2018-09-14T12:28:47.109Z,10.81
2018-09-14T12:34:47.928Z,10.93
2018-09-14T12:38:48.664Z,10.55
2018-09-14T12:44:49.376Z,8.32
2018-09-14T12:48:50.292Z,8.33
2018-09-14T12:50:50.955Z,7.72
2018-09-14T12:54:51.670Z,7.21
2018-09-14T13:00:52.466Z,7.04
2018-09-14T13:04:53.237Z,6.36
2018-09-14T13:10:54.119Z,5.74
2018-09-14T13:14:54.872Z,4.78
2018-09-14T13:16:55.585Z,8.38
2018-09-14T13:20:56.410Z,7.09
2018-09-14T13:26:57.238Z,5.89
2018-09-14T13:30:58.206Z,3.63
2018-09-14T13:36:58.980Z,5.43
2018-09-14T13:40:59.871Z,4.94
2018-09-14T13:43:00.735Z,5.18
2018-09-14T13:47:01.448Z,5.07
2018-09-14T13:53:02.279Z,4.93
2018-09-14T13:57:03.116Z,5.82
2018-09-14T14:03:03.770Z,6.18
2018-09-14T14:07:04.522Z,6.03
2018-09-14T14:09:05.227Z,6.43
2018-09-14T14:13:06.092Z,9.01
2018-09-14T14:19:06.951Z,6.2
2018-09-14T14:23:07.827Z,7.85
2018-09-14T14:29:08.549Z,7.23
2018-09-14T14:35:09.369Z,7.2
2018-09-14T14:39:10.208Z,7.75
2018-09-14T14:45:11.296Z,7.1
2018-09-14T14:49:11.906Z,7.07
2018-09-14T14:55:12.632Z,8.67
2018-09-14T15:01:13.339Z,9.18
2018-09-14T15:05:14.211Z,7.24
2018-09-14T15:11:15.123Z,8.85
2018-09-14T15:15:16.244Z,8.48
2018-09-14T15:17:17.077Z,8.87
2018-09-14T15:21:17.754Z,7
2018-09-14T15:27:18.469Z,9.42
2018-09-14T15:31:19.322Z,8.73
2018-09-14T15:37:20.120Z,11.99
2018-09-14T15:43:20.977Z,10.57
2018-09-14T15:47:21.753Z,10.53
2018-09-14T15:53:23.354Z,9.99
2018-09-14T15:57:24.158Z,9.25
2018-09-14T15:59:24.897Z,12.21
2018-09-14T16:03:25.644Z,11.44
2018-09-14T16:09:26.402Z,11.38
2018-09-14T16:13:27.376Z,10.78
2018-09-14T16:19:28.031Z,12.58
2018-09-14T16:25:28.987Z,10.41
2018-09-14T16:29:30.049Z,9.71
2018-09-14T16:35:30.697Z,12.84
2018-09-14T16:39:31.487Z,10.7
2018-09-14T16:45:33.101Z,10.29
2018-09-14T16:51:33.944Z,11.37
2018-09-14T16:55:34.689Z,11.04
2018-09-14T17:01:35.615Z,9.05
2018-09-14T17:05:36.399Z,8.46
2018-09-14T17:07:37.145Z,9.57
2018-09-14T17:11:37.989Z,9.28
2018-09-14T17:17:38.699Z,9.71
2018-09-14T17:21:39.604Z,9.38
2018-09-14T17:27:40.324Z,11.79
2018-09-14T17:33:41.059Z,9.77
2018-09-14T17:37:41.748Z,10.32
2018-09-14T17:43:42.509Z,10.53
2018-09-14T17:47:43.321Z,11.07
2018-09-14T17:49:44.631Z,11.12
2018-09-14T17:53:45.362Z,11.24
2018-09-14T17:59:46.156Z,10.38
2018-09-14T18:03:47.266Z,11.25
2018-09-14T18:09:47.960Z,11.21
2018-09-14T18:15:48.781Z,10.66
2018-09-14T18:19:49.687Z,13.65
2018-09-14T18:25:50.468Z,12.75
2018-09-14T18:29:51.268Z,12.82
2018-09-14T18:35:52.119Z,15.2
2018-09-14T18:41:52.806Z,13.19
2018-09-14T18:45:53.567Z,13.88
2018-09-14T18:51:54.308Z,14.57
2018-09-14T18:55:55.144Z,12.42
2018-09-14T18:57:55.968Z,14.67
2018-09-14T19:01:56.829Z,12.9
2018-09-14T19:07:57.642Z,15.56
2018-09-14T19:11:58.404Z,17.24
2018-09-14T19:17:59.213Z,13.92
2018-09-14T19:23:59.974Z,13.33
2018-09-14T19:28:00.692Z,13.22
2018-09-14T19:34:01.543Z,13.04
2018-09-14T19:38:02.415Z,11.99
2018-09-14T19:40:03.144Z,12.51
2018-09-14T19:44:03.813Z,13.2
2018-09-14T19:50:04.873Z,13.87
2018-09-14T19:54:06.341Z,14.63
2018-09-14T20:00:07.015Z,11.28
2018-09-14T20:04:07.750Z,13.21
2018-09-14T20:06:08.526Z,15.43
2018-09-14T20:10:09.186Z,16.09
2018-09-14T20:16:10.057Z,13.33
2018-09-14T20:20:10.829Z,13.89
2018-09-14T20:26:11.710Z,15.82
2018-09-14T20:32:12.808Z,12.74
2018-09-14T20:36:13.847Z,14.74
2018-09-14T20:42:15.360Z,16.97
2018-09-14T20:46:16.120Z,13.22
2018-09-14T20:48:17.124Z,13.43
2018-09-14T20:52:18.169Z,12.98
2018-09-14T20:58:18.977Z,13.99
2018-09-14T21:02:19.683Z,13.31
2018-09-14T21:08:20.429Z,10.8
2018-09-14T21:14:21.240Z,12.76
2018-09-14T21:18:22.118Z,14.24
2018-09-14T21:24:22.820Z,12.92
2018-09-14T21:28:23.609Z,12.72
2018-09-14T21:34:24.401Z,12.82
2018-09-14T21:40:25.181Z,15.55
2018-09-14T21:44:26.056Z,12.72
2018-09-14T21:50:26.839Z,12.18
2018-09-14T21:54:27.744Z,15.8
2018-09-14T21:56:28.408Z,12.37
2018-09-14T22:00:29.821Z,14.3
2018-09-14T22:06:30.613Z,15.91
2018-09-14T22:10:31.381Z,13.25
2018-09-14T22:16:32.130Z,12.3
2018-09-14T22:22:33.024Z,13.07
2018-09-14T22:26:33.799Z,13.98
2018-09-14T22:32:34.773Z,14.85
2018-09-14T22:36:35.519Z,13.07
2018-09-14T22:38:36.318Z,11.97
2018-09-14T22:42:37.056Z,14.59
2018-09-14T22:48:37.873Z,13.84
2018-09-14T22:52:38.614Z,12.8
2018-09-14T22:58:39.436Z,14.66
2018-09-14T23:04:40.150Z,14.41
2018-09-14T23:08:40.897Z,13.09
2018-09-14T23:14:41.650Z,14
2018-09-14T23:18:42.404Z,13.36
2018-09-14T23:24:43.179Z,17.4
2018-09-14T23:30:43.991Z,12.84
2018-09-14T23:34:44.729Z,12.87
2018-09-14T23:40:45.476Z,12.03
2018-09-14T23:44:46.282Z,12.37
2018-09-14T23:46:46.945Z,15.66
2018-09-14T23:50:47.769Z,12.51
2018-09-14T23:56:48.596Z,14.19
